Time;durP1;ratioP1;P1;durP2;ratioP2;P2;SDS_P1;SDS_P2;PMS_P1;PMS_P2;Temp;Humidity;BMP_temperature;BMP_pressure;BME280_temperature;BME280_humidity;BME280_pressure;Samples;Min_cycle;Max_cycle;Signal;HPM_P1;HPM_P2
2022/01/15 00:02:28;;;;;;;8.00;4.65;;;21.50;64.90;;;;;;7778485;28;20186;-56
2022/01/15 00:06:13;;;;;;;7.75;4.45;;;21.50;65.80;;;;;;7778111;28;20179;-56
2022/01/15 00:09:59;;;;;;;10.68;5.53;;;21.40;64.80;;;;;;7777840;28;20218;-56
2022/01/15 00:13:52;;;;;;;6.60;5.00;;;21.40;64.90;;;;;;7778607;28;20183;-55
2022/01/15 00:21:33;;;;;;;9.98;4.68;;;21.40;65.00;;;;;;7778576;28;20203;-56
2022/01/15 00:25:19;;;;;;;8.63;4.70;;;21.30;64.90;;;;;;7778292;28;20195;-56
2022/01/15 00:29:05;;;;;;;8.30;5.00;;;21.30;65.00;;;;;;7777376;28;20211;-56
2022/01/15 00:32:54;;;;;;;5.68;4.38;;;21.30;65.10;;;;;;7778152;28;20656;-59
2022/01/15 00:36:39;;;;;;;5.90;4.45;;;21.20;65.00;;;;;;7777974;28;20569;-55
2022/01/15 00:40:25;;;;;;;6.65;4.32;;;21.30;65.10;;;;;;7777330;28;20197;-56
2022/01/15 00:44:10;;;;;;;8.68;5.53;;;21.20;65.10;;;;;;7777953;28;20245;-58
2022/01/15 00:47:56;;;;;;;8.55;5.00;;;21.20;65.10;;;;;;7777398;28;20215;-57
2022/01/15 00:51:41;;;;;;;8.60;5.80;;;21.20;65.10;;;;;;7777595;28;20207;-56
2022/01/15 00:55:27;;;;;;;7.53;5.65;;;21.10;65.10;;;;;;7777558;28;20176;-57
2022/01/15 00:59:14;;;;;;;7.22;5.15;;;21.20;65.10;;;;;;7776921;28;20569;-56
2022/01/15 01:02:59;;;;;;;7.00;5.15;;;21.10;65.10;;;;;;7777683;28;20226;-58
2022/01/15 01:06:46;;;;;;;9.52;5.40;;;21.10;65.10;;;;;;7777466;28;20290;-57
2022/01/15 01:22:55;;;;;;;7.82;5.57;;;20.90;65.10;;;;;;7775156;28;20865;-53
2022/01/15 01:26:54;;;;;;;7.97;5.63;;;20.90;65.10;;;;;;7776705;28;20191;-59
2022/01/15 01:31:18;;;;;;;8.30;5.30;;;20.90;65.20;;;;;;7775996;28;20256;-57
2022/01/15 01:34:52;;;;;;;7.35;5.28;;;20.90;65.20;;;;;;7775328;28;20194;-57
2022/01/15 01:38:46;;;;;;;7.13;5.55;;;20.80;65.10;;;;;;7775832;28;20206;-58
2022/01/15 01:42:40;;;;;;;7.57;5.13;;;20.80;65.10;;;;;;7776521;28;20183;-56
2022/01/15 01:50:22;;;;;;;7.15;5.47;;;20.80;65.10;;;;;;7776373;28;20206;-57
2022/01/15 01:54:13;;;;;;;11.73;5.10;;;20.80;65.10;;;;;;7776352;28;20253;-57
2022/01/15 01:57:59;;;;;;;9.63;5.43;;;20.70;65.10;;;;;;7775470;28;20202;-58
2022/01/15 02:01:45;;;;;;;9.48;5.57;;;20.80;65.20;;;;;;7776190;28;20179;-58
2022/01/15 02:05:30;;;;;;;7.82;5.30;;;20.70;66.00;;;;;;7776174;28;20683;-57
2022/01/15 02:09:17;;;;;;;8.05;5.45;;;20.70;65.30;;;;;;7775230;28;20696;-57
2022/01/15 02:13:08;;;;;;;8.02;5.15;;;20.70;65.30;;;;;;7776162;28;20262;-57
2022/01/15 02:16:54;;;;;;;7.60;5.10;;;20.70;65.30;;;;;;7775989;28;20202;-59
2022/01/15 02:24:43;;;;;;;5.72;4.68;;;20.60;65.20;;;;;;7776381;28;20176;-57
2022/01/15 02:28:32;;;;;;;7.30;5.43;;;20.60;65.30;;;;;;7778840;28;20246;-57
2022/01/15 02:32:17;;;;;;;6.32;4.65;;;20.60;65.40;;;;;;7781739;28;20175;-57
2022/01/15 02:36:11;;;;;;;6.40;4.45;;;20.60;65.40;;;;;;7781648;28;20183;-56
2022/01/15 02:39:58;;;;;;;7.55;4.88;;;20.60;65.40;;;;;;7780944;28;20203;-59
2022/01/15 02:43:43;;;;;;;6.38;4.65;;;20.50;65.40;;;;;;7781347;28;20198;-58
2022/01/15 02:51:53;;;;;;;6.72;4.43;;;20.50;65.40;;;;;;7746701;28;20307;-59
2022/01/15 02:55:43;;;;;;;9.82;4.63;;;20.50;65.50;;;;;;7746631;28;20192;-58
2022/01/15 02:59:28;;;;;;;6.10;4.65;;;20.50;65.50;;;;;;7745802;28;20250;-59
2022/01/15 03:03:14;;;;;;;5.63;4.57;;;20.40;65.50;;;;;;7746378;28;20196;-58
2022/01/15 03:06:59;;;;;;;5.72;4.03;;;20.40;65.50;;;;;;7746348;28;20192;-59
2022/01/15 03:10:45;;;;;;;6.75;4.57;;;20.40;65.50;;;;;;7745335;28;20215;-59
2022/01/15 03:14:31;;;;;;;7.20;4.93;;;20.30;65.50;;;;;;7745928;28;20218;-59
2022/01/15 03:18:17;;;;;;;7.75;4.10;;;20.30;65.60;;;;;;7745162;28;20207;-59
2022/01/15 03:22:04;;;;;;;6.22;4.22;;;20.30;65.50;;;;;;7763616;28;20187;-59
2022/01/15 03:25:49;;;;;;;5.88;4.15;;;20.30;65.60;;;;;;7779997;28;20186;-58
2022/01/15 03:29:34;;;;;;;8.73;4.07;;;20.30;65.80;;;;;;7779224;28;20692;-57
2022/01/15 03:33:20;;;;;;;4.97;4.07;;;20.30;65.70;;;;;;7780017;28;20188;-57
2022/01/15 03:37:05;;;;;;;5.70;4.05;;;20.30;65.70;;;;;;7779496;28;20191;-58
2022/01/15 03:40:53;;;;;;;4.80;3.70;;;20.30;65.80;;;;;;7778515;28;20285;-58
2022/01/15 03:44:45;;;;;;;5.85;3.97;;;20.30;65.80;;;;;;7779506;28;20183;-59
2022/01/15 03:48:31;;;;;;;5.05;3.45;;;20.20;65.80;;;;;;7778370;28;20269;-58
2022/01/15 03:52:16;;;;;;;4.63;3.53;;;20.20;65.90;;;;;;7779233;28;20259;-57
2022/01/15 03:56:02;;;;;;;5.38;4.10;;;20.20;65.80;;;;;;7779115;28;20258;-59
2022/01/15 03:59:47;;;;;;;4.80;3.42;;;20.20;66.70;;;;;;7778301;28;20199;-57
2022/01/15 04:03:33;;;;;;;5.78;3.60;;;20.20;65.80;;;;;;7779014;28;20184;-56
2022/01/15 04:07:18;;;;;;;5.55;3.47;;;20.20;65.80;;;;;;7778797;28;20701;-58
2022/01/15 04:11:04;;;;;;;4.18;3.00;;;20.20;65.80;;;;;;7777964;28;20211;-57
2022/01/15 04:14:49;;;;;;;7.88;3.58;;;20.20;65.80;;;;;;7778694;28;20520;-59
2022/01/15 04:18:40;;;;;;;8.68;3.50;;;20.20;65.90;;;;;;7777726;28;20196;-59
2022/01/15 04:22:25;;;;;;;7.18;3.40;;;20.20;65.80;;;;;;7778537;28;20180;-58
2022/01/15 04:26:11;;;;;;;5.90;3.40;;;20.30;65.90;;;;;;7778436;28;20191;-58
2022/01/15 04:30:02;;;;;;;5.50;3.42;;;20.30;65.90;;;;;;7777176;28;20215;-57
2022/01/15 04:33:47;;;;;;;8.07;3.05;;;20.20;65.90;;;;;;7778439;28;20176;-58
2022/01/15 04:37:39;;;;;;;7.00;3.50;;;20.20;65.90;;;;;;7777666;28;20195;-57
2022/01/15 04:41:25;;;;;;;4.80;2.88;;;20.20;65.80;;;;;;7778539;28;20191;-58
2022/01/15 04:45:11;;;;;;;7.57;3.10;;;20.20;65.80;;;;;;7778328;28;20180;-57
2022/01/15 04:48:57;;;;;;;5.25;3.10;;;20.20;65.90;;;;;;7776664;28;20330;-57
2022/01/15 04:52:42;;;;;;;5.82;2.97;;;20.20;65.90;;;;;;7777623;28;20207;-58
2022/01/15 04:56:28;;;;;;;4.97;2.95;;;20.20;65.90;;;;;;7777701;28;20187;-59
2022/01/15 05:00:16;;;;;;;10.15;3.22;;;20.20;65.90;;;;;;7776887;28;20191;-59
2022/01/15 05:04:01;;;;;;;8.00;2.85;;;20.20;65.80;;;;;;7777318;28;20545;-57
2022/01/15 05:07:47;;;;;;;5.38;2.92;;;20.20;65.90;;;;;;7776520;28;20226;-58
2022/01/15 05:11:45;;;;;;;4.55;2.80;;;20.10;65.80;;;;;;7777139;28;20734;-59
2022/01/15 05:15:31;;;;;;;4.85;2.60;;;20.20;65.90;;;;;;7777132;28;20178;-58
2022/01/15 05:19:16;;;;;;;5.68;2.40;;;20.10;66.00;;;;;;7776203;28;20282;-59
2022/01/15 05:23:02;;;;;;;5.78;2.50;;;20.20;66.10;;;;;;7776931;28;20225;-59
2022/01/15 05:26:47;;;;;;;7.10;2.80;;;20.10;66.10;;;;;;7776868;28;20207;-59
2022/01/15 05:30:33;;;;;;;3.67;2.35;;;20.20;66.20;;;;;;7803651;28;20210;-59
2022/01/15 05:34:19;;;;;;;5.85;2.25;;;20.10;66.10;;;;;;7806821;28;20179;-58
2022/01/15 05:38:04;;;;;;;4.63;2.58;;;20.10;66.20;;;;;;7802631;28;20199;-58
2022/01/15 05:41:50;;;;;;;4.55;2.53;;;20.10;66.20;;;;;;7776198;28;20537;-57
2022/01/15 05:45:35;;;;;;;4.55;2.33;;;20.10;66.20;;;;;;7803438;28;20190;-58
2022/01/15 05:49:21;;;;;;;4.85;2.38;;;20.10;66.20;;;;;;7796231;28;20218;-58
2022/01/15 05:53:06;;;;;;;5.32;2.67;;;20.10;66.30;;;;;;7776340;28;20203;-58
2022/01/15 05:56:52;;;;;;;7.60;2.38;;;20.10;66.20;;;;;;7776189;28;20206;-57
2022/01/15 06:00:38;;;;;;;5.95;2.80;;;20.10;66.30;;;;;;7776331;28;20241;-58
2022/01/15 06:04:23;;;;;;;6.93;2.90;;;20.10;66.20;;;;;;7782359;28;20184;-58
2022/01/15 06:08:08;;;;;;;7.55;2.08;;;20.10;66.30;;;;;;7796516;28;20268;-57
2022/01/15 06:11:59;;;;;;;4.22;2.22;;;20.10;66.20;;;;;;7812584;28;20217;-58
2022/01/15 06:15:44;;;;;;;5.55;2.80;;;20.10;66.20;;;;;;7812895;28;20218;-58
2022/01/15 06:19:29;;;;;;;6.60;2.50;;;20.10;66.20;;;;;;7811626;28;20210;-58
2022/01/15 06:23:15;;;;;;;23.95;2.97;;;20.10;66.20;;;;;;7812419;28;20187;-57
2022/01/15 06:27:00;;;;;;;15.27;2.78;;;20.10;66.50;;;;;;7812061;28;20230;-58
2022/01/15 06:30:46;;;;;;;16.23;2.90;;;20.10;66.40;;;;;;7811440;28;20360;-58
2022/01/15 06:34:32;;;;;;;13.38;3.00;;;20.10;66.30;;;;;;7811901;28;20660;-57
2022/01/15 06:38:17;;;;;;;22.27;3.35;;;20.10;66.50;;;;;;7809226;28;20214;-58
2022/01/15 06:42:03;;;;;;;16.42;2.88;;;20.10;66.40;;;;;;7813298;28;20233;-59
2022/01/15 06:45:54;;;;;;;18.15;2.67;;;20.10;66.50;;;;;;7817089;28;20210;-58
2022/01/15 06:49:40;;;;;;;56.22;3.92;;;20.10;66.30;;;;;;7810037;28;20625;-59
2022/01/15 06:53:25;;;;;;;32.05;3.67;;;20.10;66.50;;;;;;7811747;28;20236;-59
2022/01/15 06:57:11;;;;;;;46.85;3.78;;;20.10;66.50;;;;;;7811588;28;20280;-57
2022/01/15 07:00:56;;;;;;;20.77;2.90;;;20.00;66.50;;;;;;7811000;28;20257;-59
2022/01/15 07:04:42;;;;;;;18.35;3.15;;;20.00;66.50;;;;;;7811513;28;20189;-58
2022/01/15 07:08:27;;;;;;;19.15;3.35;;;20.00;66.40;;;;;;7810445;28;20855;-58
2022/01/15 07:12:13;;;;;;;24.15;2.90;;;20.00;66.30;;;;;;7813724;28;20198;-58
2022/01/15 07:16:00;;;;;;;15.23;3.85;;;20.00;66.50;;;;;;7811475;28;20179;-59
2022/01/15 07:19:45;;;;;;;17.35;3.13;;;20.00;66.50;;;;;;7804102;28;20210;-59
2022/01/15 07:23:31;;;;;;;71.07;6.20;;;20.00;66.50;;;;;;7811604;28;20679;-59
2022/01/15 07:27:16;;;;;;;39.30;4.38;;;20.00;66.40;;;;;;7807678;28;20238;-59
2022/01/15 07:31:02;;;;;;;28.30;3.63;;;20.00;66.40;;;;;;7780206;28;20207;-59
2022/01/15 07:34:48;;;;;;;27.60;4.32;;;20.00;66.30;;;;;;7779989;28;20214;-59
2022/01/15 07:38:35;;;;;;;36.50;5.28;;;20.00;66.20;;;;;;7785489;28;20571;-58
2022/01/15 07:42:20;;;;;;;42.22;5.28;;;20.00;65.50;;;;;;7810332;28;20272;-58
2022/01/15 07:46:06;;;;;;;28.77;5.13;;;20.10;65.40;;;;;;7810258;28;20656;-58
2022/01/15 07:49:52;;;;;;;27.60;4.88;;;20.10;65.40;;;;;;7824680;28;20859;-57
2022/01/15 07:53:37;;;;;;;23.38;4.22;;;20.00;65.50;;;;;;7802963;28;20190;-57
2022/01/15 07:57:22;;;;;;;20.52;4.97;;;20.10;65.20;;;;;;7809766;28;20195;-56
2022/01/15 08:01:08;;;;;;;21.98;4.97;;;20.00;65.20;;;;;;7809632;28;20185;-57
2022/01/15 08:04:53;;;;;;;23.90;4.78;;;20.00;66.20;;;;;;7809787;28;20551;-57
2022/01/15 08:08:39;;;;;;;20.02;4.22;;;20.10;65.50;;;;;;7802649;28;20222;-58
2022/01/15 08:12:25;;;;;;;19.25;4.20;;;20.10;65.70;;;;;;7809676;28;20702;-58
2022/01/15 08:16:10;;;;;;;16.92;5.07;;;20.10;65.50;;;;;;7808159;28;20273;-57
2022/01/15 08:19:56;;;;;;;15.43;4.47;;;20.10;65.50;;;;;;7808525;28;20201;-58
2022/01/15 08:23:41;;;;;;;25.17;4.85;;;20.10;65.50;;;;;;7808720;28;20258;-58
2022/01/15 08:27:27;;;;;;;18.45;5.00;;;20.20;65.70;;;;;;7808304;28;20198;-57
2022/01/15 08:31:12;;;;;;;23.20;5.50;;;20.20;65.70;;;;;;7808739;28;20210;-59
2022/01/15 08:34:58;;;;;;;15.05;5.30;;;20.20;65.40;;;;;;7808815;28;20175;-57
2022/01/15 08:38:44;;;;;;;15.57;5.72;;;20.30;65.50;;;;;;7808008;28;20571;-55
2022/01/15 08:42:30;;;;;;;14.35;5.43;;;20.30;65.30;;;;;;7808379;28;20265;-58
2022/01/15 08:46:22;;;;;;;20.10;5.13;;;20.40;65.50;;;;;;7864982;28;20551;-57
2022/01/15 08:50:11;;;;;;;21.77;5.40;;;20.40;65.80;;;;;;7852930;28;20213;-57
2022/01/15 08:53:56;;;;;;;14.75;5.32;;;20.50;65.90;;;;;;7833502;28;20185;-57
2022/01/15 08:57:42;;;;;;;24.45;4.22;;;20.50;66.10;;;;;;7831943;28;20267;-58
2022/01/15 09:01:28;;;;;;;14.73;4.43;;;20.60;66.50;;;;;;7833704;28;20178;-57
2022/01/15 09:05:14;;;;;;;12.77;3.47;;;20.70;66.70;;;;;;7833409;28;20206;-58
2022/01/15 09:09:00;;;;;;;31.92;4.78;;;20.80;66.90;;;;;;7832624;28;20213;-57
2022/01/15 09:12:45;;;;;;;20.58;3.53;;;20.80;66.90;;;;;;7833325;28;20174;-58
2022/01/15 09:16:31;;;;;;;15.27;3.88;;;20.90;66.90;;;;;;7833126;28;20237;-58
2022/01/15 09:20:17;;;;;;;18.77;4.28;;;20.90;66.80;;;;;;7832388;28;20569;-57
2022/01/15 09:24:03;;;;;;;16.33;3.75;;;21.00;67.00;;;;;;7832875;28;20682;-58
2022/01/15 09:31:52;;;;;;;22.33;3.55;;;21.00;67.00;;;;;;7833220;28;20178;-58
2022/01/15 09:35:38;;;;;;;23.73;3.60;;;21.10;66.80;;;;;;7832664;28;20224;-58
2022/01/15 09:39:23;;;;;;;12.23;3.90;;;21.10;66.90;;;;;;7834046;28;20210;-58
2022/01/15 09:43:09;;;;;;;12.35;2.85;;;21.10;66.90;;;;;;7831527;28;20297;-56
2022/01/15 09:46:56;;;;;;;17.27;3.72;;;21.10;67.00;;;;;;7832064;28;20253;-57
2022/01/15 09:50:43;;;;;;;15.55;3.63;;;21.10;66.90;;;;;;7831406;28;20191;-58
2022/01/15 09:54:29;;;;;;;24.23;4.40;;;21.10;67.10;;;;;;7829895;28;20178;-57
2022/01/15 09:58:16;;;;;;;18.17;3.92;;;21.10;67.10;;;;;;7841623;28;20284;-57
2022/01/15 10:02:04;;;;;;;15.35;3.65;;;21.10;66.80;;;;;;7842479;28;20288;-57
2022/01/15 10:05:50;;;;;;;13.65;3.35;;;21.10;67.10;;;;;;7842250;28;20867;-58
2022/01/15 10:09:36;;;;;;;9.65;3.38;;;21.00;67.20;;;;;;7841259;28;20560;-59
2022/01/15 10:13:25;;;;;;;14.20;3.72;;;21.00;67.30;;;;;;7819137;28;20182;-55
2022/01/15 10:17:26;;;;;;;13.20;3.50;;;21.00;67.30;;;;;;7811330;28;20209;-58
2022/01/15 10:21:17;;;;;;;10.70;3.35;;;21.00;67.40;;;;;;7811042;28;20183;-56
2022/01/15 10:25:06;;;;;;;11.50;3.33;;;21.00;67.20;;;;;;7811090;28;20563;-58
2022/01/15 10:28:59;;;;;;;11.50;3.72;;;21.00;67.20;;;;;;7810376;28;20749;-57
2022/01/15 10:33:01;;;;;;;11.10;3.45;;;21.00;66.90;;;;;;7810991;28;20187;-57
2022/01/15 10:36:46;;;;;;;8.80;2.83;;;21.00;67.20;;;;;;7810561;28;20660;-57
2022/01/15 10:40:53;;;;;;;7.03;2.80;;;21.00;67.00;;;;;;7809620;28;20580;-57
2022/01/15 10:44:39;;;;;;;9.77;3.30;;;21.00;67.00;;;;;;7809946;28;20202;-57
2022/01/15 10:48:35;;;;;;;11.32;3.42;;;20.90;66.10;;;;;;7809446;28;20198;-58
2022/01/15 10:52:22;;;;;;;12.05;3.42;;;20.90;67.30;;;;;;7809981;28;20631;-57
2022/01/15 10:56:10;;;;;;;8.80;3.25;;;20.90;66.10;;;;;;7809702;28;20174;-57
2022/01/15 10:59:56;;;;;;;11.43;3.95;;;20.90;66.10;;;;;;7810373;28;20240;-58
2022/01/15 11:03:45;;;;;;;9.45;3.25;;;20.90;65.80;;;;;;7814172;28;20203;-58
2022/01/15 11:07:43;;;;;;;9.52;3.60;;;20.90;65.60;;;;;;7807876;28;20198;-57
2022/01/15 11:11:32;;;;;;;10.30;3.33;;;20.80;65.90;;;;;;7809947;28;20273;-57
2022/01/15 11:15:17;;;;;;;109.15;10.75;;;20.80;65.30;;;;;;7809284;28;20183;-56
2022/01/15 11:19:03;;;;;;;68.35;6.93;;;20.90;65.60;;;;;;7808251;28;20741;-58
2022/01/15 11:22:49;;;;;;;74.20;8.82;;;20.80;66.00;;;;;;7809022;28;20183;-59
2022/01/15 11:26:36;;;;;;;45.88;7.13;;;20.80;65.50;;;;;;7808675;28;20190;-56
2022/01/15 11:30:22;;;;;;;41.85;5.97;;;20.80;65.20;;;;;;7807864;28;20179;-58
2022/01/15 11:34:09;;;;;;;37.33;5.82;;;20.80;65.10;;;;;;7827968;28;20670;-59
2022/01/15 11:37:56;;;;;;;56.60;6.53;;;20.80;65.10;;;;;;7838750;28;20202;-59
2022/01/15 11:41:48;;;;;;;39.20;7.43;;;20.80;65.40;;;;;;7824879;28;20664;-59
2022/01/15 11:45:35;;;;;;;45.60;6.13;;;20.80;65.00;;;;;;7808361;28;20218;-57
2022/01/15 11:49:24;;;;;;;33.67;5.55;;;20.80;65.00;;;;;;7807560;28;20198;-55
2022/01/15 11:53:09;;;;;;;40.65;5.63;;;20.80;64.90;;;;;;7808103;28;20197;-57
2022/01/15 11:56:54;;;;;;;31.17;5.93;;;20.80;64.80;;;;;;7807962;28;20203;-57
2022/01/15 12:00:43;;;;;;;29.75;6.05;;;20.80;64.70;;;;;;7807387;28;20717;-57
2022/01/15 12:04:36;;;;;;;20.58;5.53;;;20.80;64.70;;;;;;7807765;28;20218;-57
2022/01/15 12:08:23;;;;;;;38.20;5.40;;;20.90;64.80;;;;;;7806986;28;20775;-57
2022/01/15 12:12:21;;;;;;;25.67;5.90;;;20.80;64.70;;;;;;7807617;28;20174;-57
2022/01/15 12:16:24;;;;;;;27.05;5.75;;;20.90;64.70;;;;;;7807621;28;20187;-57
2022/01/15 12:20:25;;;;;;;28.20;5.32;;;21.00;64.90;;;;;;7806698;28;20671;-56
2022/01/15 12:24:36;;;;;;;18.77;5.32;;;21.10;64.70;;;;;;7807176;28;20206;-58
2022/01/15 12:28:25;;;;;;;42.05;8.32;;;21.20;64.80;;;;;;7806645;28;20245;-58
2022/01/15 12:32:12;;;;;;;54.35;8.23;;;21.20;64.70;;;;;;7807362;28;20163;-56
2022/01/15 12:35:57;;;;;;;47.70;6.88;;;21.20;64.00;;;;;;7807292;28;20559;-57
2022/01/15 12:39:43;;;;;;;49.60;13.02;;;21.30;64.30;;;;;;7806428;28;20202;-58
2022/01/15 12:43:37;;;;;;;75.38;19.42;;;21.30;63.90;;;;;;7829013;28;20621;-57
2022/01/15 12:47:23;;;;;;;67.47;19.95;;;21.30;63.80;;;;;;7837964;28;20260;-55
2022/01/15 12:51:11;;;;;;;81.88;25.77;;;21.20;60.00;;;;;;7809896;28;20270;-55
2022/01/15 12:54:57;;;;;;;60.33;21.30;;;21.10;63.00;;;;;;7806872;28;20201;-57
2022/01/15 12:58:43;;;;;;;69.70;21.10;;;21.20;63.90;;;;;;7806344;28;20195;-57
2022/01/15 13:02:29;;;;;;;40.42;13.60;;;21.30;64.30;;;;;;7806909;28;20266;-57
2022/01/15 13:06:14;;;;;;;40.38;10.13;;;21.50;64.70;;;;;;7806710;28;20566;-57
2022/01/15 13:10:00;;;;;;;34.03;7.47;;;21.70;64.60;;;;;;7805862;28;20194;-55
2022/01/15 13:13:48;;;;;;;25.10;7.55;;;21.90;64.80;;;;;;7806567;28;20185;-57
2022/01/15 13:17:34;;;;;;;28.77;7.40;;;22.10;64.70;;;;;;7819989;28;20203;-57
2022/01/15 13:21:21;;;;;;;29.27;7.80;;;22.20;64.50;;;;;;7806552;28;20194;-57
2022/01/15 13:25:08;;;;;;;17.88;6.70;;;22.40;64.50;;;;;;7806289;28;20209;-57
2022/01/15 13:28:55;;;;;;;21.60;6.57;;;22.50;64.40;;;;;;7805577;28;20676;-57
2022/01/15 13:32:58;;;;;;;23.77;7.00;;;22.70;64.40;;;;;;7811059;28;20212;-56
2022/01/15 13:36:46;;;;;;;28.30;6.70;;;22.70;64.20;;;;;;7812026;28;20656;-58
2022/01/15 13:40:39;;;;;;;22.13;5.97;;;22.90;64.20;;;;;;7811171;28;20232;-59
2022/01/15 13:44:29;;;;;;;25.77;6.43;;;22.90;64.10;;;;;;7811718;28;20268;-59
2022/01/15 13:48:22;;;;;;;25.40;6.07;;;23.00;64.20;;;;;;7811268;28;20206;-56
2022/01/15 13:56:17;;;;;;;17.90;5.07;;;23.00;64.20;;;;;;7811942;28;20182;-57
2022/01/15 14:00:09;;;;;;;18.27;5.30;;;23.00;64.20;;;;;;7810699;28;20672;-57
2022/01/15 14:03:55;;;;;;;18.00;5.20;;;23.00;64.30;;;;;;7811439;28;20271;-57
2022/01/15 14:07:42;;;;;;;16.42;5.13;;;23.10;64.40;;;;;;7810598;28;20197;-57
2022/01/15 14:11:28;;;;;;;16.67;4.95;;;23.00;64.40;;;;;;7811171;28;20254;-58
2022/01/15 14:15:15;;;;;;;16.35;5.38;;;23.00;64.50;;;;;;7811076;28;20170;-57
2022/01/15 14:19:23;;;;;;;18.63;4.57;;;23.00;64.50;;;;;;7810228;28;20285;-57
2022/01/15 14:23:07;;;;;;;23.48;5.10;;;23.00;64.60;;;;;;7810771;28;20655;-59
2022/01/15 14:26:57;;;;;;;16.98;4.45;;;23.00;64.70;;;;;;7811000;28;20672;-57
2022/01/15 14:30:44;;;;;;;20.77;4.45;;;23.00;64.80;;;;;;7810237;28;20182;-56
2022/01/15 14:34:29;;;;;;;22.13;5.28;;;23.00;64.80;;;;;;7810947;28;20187;-57
2022/01/15 14:38:15;;;;;;;20.75;4.55;;;22.90;65.00;;;;;;7810292;28;20282;-57
2022/01/15 14:42:01;;;;;;;23.30;4.75;;;22.90;64.80;;;;;;7810338;28;20236;-57
2022/01/15 14:45:47;;;;;;;15.43;4.68;;;22.90;64.60;;;;;;7810114;28;20644;-57
2022/01/15 14:49:33;;;;;;;13.80;4.70;;;22.90;64.50;;;;;;7809465;28;20190;-57
2022/01/15 14:53:19;;;;;;;15.60;4.88;;;22.90;63.70;;;;;;7809900;28;20663;-56
2022/01/15 14:57:04;;;;;;;23.40;4.90;;;22.90;63.80;;;;;;7809759;28;20203;-57
2022/01/15 15:00:51;;;;;;;15.77;5.03;;;22.90;62.80;;;;;;7809013;28;20216;-57
2022/01/15 15:04:37;;;;;;;15.18;5.05;;;22.90;62.80;;;;;;7809463;28;20205;-57
2022/01/15 15:08:22;;;;;;;12.00;4.65;;;22.90;62.80;;;;;;7825199;28;20296;-57
2022/01/15 15:12:10;;;;;;;15.30;5.35;;;22.90;62.20;;;;;;7840334;28;20212;-57
2022/01/15 15:15:55;;;;;;;14.40;4.88;;;22.90;62.10;;;;;;7840118;28;20181;-57
2022/01/15 15:19:41;;;;;;;9.15;4.38;;;22.90;62.00;;;;;;7839221;28;20260;-58
2022/01/15 15:23:26;;;;;;;13.57;5.35;;;22.80;61.70;;;;;;7839930;28;20198;-57
2022/01/15 15:27:14;;;;;;;13.80;4.88;;;22.80;61.60;;;;;;7839806;28;20190;-57
2022/01/15 15:31:08;;;;;;;16.10;5.30;;;22.80;61.40;;;;;;7837790;28;20649;-58
2022/01/15 15:34:54;;;;;;;15.45;5.07;;;22.70;61.30;;;;;;7839720;28;20174;-59
2022/01/15 15:38:40;;;;;;;13.15;4.78;;;22.70;61.30;;;;;;7838769;28;20213;-59
2022/01/15 15:42:27;;;;;;;11.85;4.78;;;22.60;61.30;;;;;;7839572;28;20178;-59
2022/01/15 15:46:12;;;;;;;10.50;4.30;;;22.60;61.30;;;;;;7839262;28;20248;-59
2022/01/15 15:49:58;;;;;;;11.27;4.75;;;22.60;61.40;;;;;;7838762;28;20201;-58
2022/01/15 15:53:44;;;;;;;13.38;4.00;;;22.60;61.30;;;;;;7838734;28;20515;-57
2022/01/15 15:57:31;;;;;;;13.85;4.85;;;22.60;61.40;;;;;;7838411;28;20232;-57
2022/01/15 16:01:17;;;;;;;7.78;4.28;;;22.60;61.50;;;;;;7838865;28;20682;-59
2022/01/15 16:05:03;;;;;;;11.77;4.30;;;22.60;61.40;;;;;;7838726;28;20213;-55
2022/01/15 16:08:49;;;;;;;11.77;3.72;;;22.60;61.40;;;;;;7838018;28;20288;-57
2022/01/15 16:12:36;;;;;;;14.38;4.00;;;22.60;61.40;;;;;;7838915;28;20185;-57
2022/01/15 16:16:24;;;;;;;11.68;4.15;;;22.60;62.10;;;;;;7838395;28;20261;-56
2022/01/15 16:20:11;;;;;;;10.63;4.13;;;22.60;61.30;;;;;;7837599;28;20178;-57
2022/01/15 16:23:56;;;;;;;12.48;4.10;;;22.60;61.20;;;;;;7838290;28;20205;-57
2022/01/15 16:27:45;;;;;;;14.02;4.10;;;22.60;61.00;;;;;;7822294;28;20213;-57
2022/01/15 16:31:31;;;;;;;16.88;5.28;;;22.60;61.20;;;;;;7807457;28;20262;-57
2022/01/15 16:35:16;;;;;;;15.30;4.20;;;22.60;61.20;;;;;;7810103;28;20206;-57
2022/01/15 16:39:02;;;;;;;17.63;5.03;;;22.60;61.10;;;;;;7836991;28;20419;-57
2022/01/15 16:42:48;;;;;;;20.45;4.93;;;22.60;61.80;;;;;;7837862;28;20662;-57
2022/01/15 16:46:34;;;;;;;13.95;4.82;;;22.60;61.50;;;;;;7837912;28;20213;-57
2022/01/15 16:50:20;;;;;;;15.98;5.22;;;22.60;61.60;;;;;;7837121;28;20201;-57
2022/01/15 16:54:06;;;;;;;70.10;10.63;;;22.60;61.30;;;;;;7835596;28;20735;-56
2022/01/15 16:57:51;;;;;;;59.55;11.32;;;22.60;61.50;;;;;;7835861;28;20292;-57
2022/01/15 17:01:37;;;;;;;31.13;8.50;;;22.60;61.20;;;;;;7837732;28;20174;-56
2022/01/15 17:05:24;;;;;;;45.88;10.05;;;22.60;61.20;;;;;;7811110;28;20222;-55
2022/01/15 17:09:11;;;;;;;38.10;10.82;;;22.60;61.20;;;;;;7815829;28;20194;-57
2022/01/15 17:12:58;;;;;;;42.08;11.73;;;22.70;61.30;;;;;;7822892;28;20236;-53
2022/01/15 17:16:43;;;;;;;224.75;22.98;;;22.70;61.70;;;;;;7843536;28;20200;-58
2022/01/15 17:20:29;;;;;;;116.05;16.30;;;22.90;62.00;;;;;;7842837;28;20796;-55
2022/01/15 17:24:14;;;;;;;80.88;15.32;;;23.20;61.40;;;;;;7825350;28;20221;-57
2022/01/15 17:28:00;;;;;;;127.20;19.60;;;23.40;61.70;;;;;;7811597;28;20199;-57
2022/01/15 17:31:46;;;;;;;91.72;16.20;;;23.50;61.40;;;;;;7812288;28;20175;-56
2022/01/15 17:35:32;;;;;;;72.85;10.77;;;23.70;61.80;;;;;;7812188;28;20227;-57
2022/01/15 17:39:17;;;;;;;76.50;11.27;;;23.80;62.80;;;;;;7811528;28;20280;-57
2022/01/15 17:43:03;;;;;;;64.68;11.50;;;24.00;63.70;;;;;;7837689;28;20201;-57
2022/01/15 17:46:48;;;;;;;69.70;10.07;;;24.10;64.30;;;;;;7842804;28;20232;-59
2022/01/15 17:50:34;;;;;;;71.25;10.65;;;24.30;64.40;;;;;;7842355;28;20175;-59
2022/01/15 17:54:19;;;;;;;54.30;9.23;;;24.50;64.50;;;;;;7842864;28;20174;-56
2022/01/15 17:58:05;;;;;;;49.25;9.32;;;24.50;64.20;;;;;;7841886;28;20198;-57
2022/01/15 18:01:50;;;;;;;48.17;9.60;;;24.70;64.30;;;;;;7842350;28;20257;-55
2022/01/15 18:05:36;;;;;;;48.13;9.00;;;24.80;64.40;;;;;;7842186;28;20221;-56
2022/01/15 18:09:21;;;;;;;39.28;8.00;;;24.80;64.30;;;;;;7841377;28;20198;-56
2022/01/15 18:13:07;;;;;;;45.33;9.07;;;24.80;64.20;;;;;;7838044;28;20186;-56
2022/01/15 18:16:53;;;;;;;41.65;8.63;;;24.90;64.20;;;;;;7833410;28;20263;-55
2022/01/15 18:20:42;;;;;;;33.53;8.80;;;24.90;64.20;;;;;;7816387;28;20636;-57
2022/01/15 18:24:29;;;;;;;30.90;8.35;;;25.00;64.20;;;;;;7811253;28;20750;-56
2022/01/15 18:28:15;;;;;;;34.60;8.75;;;25.00;64.20;;;;;;7809909;28;20186;-55
2022/01/15 18:32:01;;;;;;;37.58;7.90;;;25.00;64.20;;;;;;7810622;28;20182;-57
2022/01/15 18:35:46;;;;;;;26.10;7.53;;;25.00;64.20;;;;;;7810460;28;20261;-56
2022/01/15 18:39:32;;;;;;;32.08;8.00;;;25.00;64.30;;;;;;7809442;28;20198;-56
2022/01/15 18:43:17;;;;;;;29.42;7.32;;;25.00;64.40;;;;;;7809878;28;20210;-55
2022/01/15 18:47:03;;;;;;;26.80;7.90;;;24.90;64.40;;;;;;7810017;28;20203;-59
2022/01/15 18:50:49;;;;;;;19.67;6.30;;;24.90;64.40;;;;;;7810195;28;20660;-56
2022/01/15 18:54:34;;;;;;;26.65;7.75;;;24.90;64.40;;;;;;7810141;28;20182;-55
2022/01/15 18:58:20;;;;;;;19.50;7.18;;;24.90;64.50;;;;;;7808467;28;20305;-56
2022/01/15 19:02:06;;;;;;;22.13;7.13;;;24.80;64.50;;;;;;7809697;28;20183;-54
2022/01/15 19:05:52;;;;;;;23.55;7.22;;;24.80;64.50;;;;;;7809630;28;20218;-59
2022/01/15 19:09:38;;;;;;;25.73;7.82;;;24.70;64.50;;;;;;7808815;28;20202;-56
2022/01/15 19:13:23;;;;;;;22.25;6.60;;;24.70;64.60;;;;;;7809654;28;20186;-56
2022/01/15 19:17:09;;;;;;;20.48;6.18;;;24.60;64.70;;;;;;7809420;28;20671;-57
2022/01/15 19:20:54;;;;;;;20.30;6.47;;;24.60;64.80;;;;;;7808935;28;20197;-58
2022/01/15 19:24:40;;;;;;;20.75;6.05;;;24.50;64.60;;;;;;7828291;28;20206;-55
2022/01/15 19:28:26;;;;;;;20.58;6.80;;;24.50;64.80;;;;;;7838768;28;20198;-57
2022/01/15 19:32:11;;;;;;;15.85;6.60;;;24.50;65.10;;;;;;7839704;28;20697;-56
2022/01/15 19:35:57;;;;;;;20.98;6.72;;;24.50;65.30;;;;;;7839531;28;20540;-58
2022/01/15 19:39:42;;;;;;;16.40;6.07;;;24.40;65.50;;;;;;7838695;28;20193;-59
2022/01/15 19:43:28;;;;;;;15.15;6.32;;;24.40;65.50;;;;;;7839320;28;20288;-58
2022/01/15 19:47:13;;;;;;;15.68;6.22;;;24.40;65.60;;;;;;7836041;28;20222;-59
2022/01/15 19:50:59;;;;;;;51.60;6.72;;;24.30;65.20;;;;;;7823167;28;20186;-57
2022/01/15 19:54:45;;;;;;;33.03;6.55;;;24.20;65.50;;;;;;7825962;28;20691;-59
2022/01/15 19:58:30;;;;;;;28.02;5.95;;;24.20;65.20;;;;;;7837026;28;20198;-56
2022/01/15 20:02:16;;;;;;;26.92;5.82;;;24.20;66.10;;;;;;7837867;28;20185;-55
2022/01/15 20:06:02;;;;;;;18.98;5.68;;;24.20;66.40;;;;;;7837967;28;20198;-56